createdAt,value
2022-12-16T00:01:44.474Z,-5.90
2022-12-16T00:04:12.717Z,-5.90
2022-12-16T00:06:40.977Z,-6.00
2022-12-16T00:09:09.180Z,-6.00
2022-12-16T00:11:37.444Z,-5.90
2022-12-16T00:14:05.845Z,-5.90
2022-12-16T00:16:35.577Z,-5.90
2022-12-16T00:19:05.023Z,-6.00
2022-12-16T00:21:33.244Z,-6.00
2022-12-16T00:24:03.031Z,-5.90
2022-12-16T00:26:32.223Z,-5.90
2022-12-16T00:29:01.353Z,-5.90
2022-12-16T00:31:29.622Z,-5.90
2022-12-16T00:33:59.956Z,-5.90
2022-12-16T00:36:28.167Z,-5.90
2022-12-16T00:38:56.734Z,-5.90
2022-12-16T00:41:24.980Z,-5.90
2022-12-16T00:43:53.152Z,-6.00
2022-12-16T00:46:21.864Z,-6.10
2022-12-16T00:48:50.161Z,-6.10
2022-12-16T00:51:19.837Z,-6.00
2022-12-16T00:53:48.271Z,-6.10
2022-12-16T00:56:18.219Z,-6.10
2022-12-16T00:58:46.642Z,-6.10
2022-12-16T01:01:15.482Z,-6.00
2022-12-16T01:03:43.850Z,-6.10
2022-12-16T01:06:14.481Z,-6.10
2022-12-16T01:08:48.480Z,-6.10
2022-12-16T01:11:17.390Z,-6.10
2022-12-16T01:13:46.361Z,-6.10
2022-12-16T01:16:15.435Z,-6.00
2022-12-16T01:18:44.154Z,-6.00
2022-12-16T01:21:14.990Z,-6.20
2022-12-16T01:23:44.774Z,-6.10
2022-12-16T01:26:17.513Z,-6.20
2022-12-16T01:28:45.986Z,-6.20
2022-12-16T01:31:15.791Z,-6.20
2022-12-16T01:33:44.154Z,-6.10
2022-12-16T01:36:12.994Z,-6.10
2022-12-16T01:38:45.365Z,-6.20
2022-12-16T01:41:15.388Z,-6.30
2022-12-16T01:43:44.661Z,-6.30
2022-12-16T01:46:19.629Z,-6.20
2022-12-16T01:48:52.220Z,-6.10
2022-12-16T01:51:27.862Z,-6.20
2022-12-16T01:54:00.221Z,-6.10
2022-12-16T01:56:31.569Z,-6.20
2022-12-16T01:59:00.866Z,-6.20
2022-12-16T02:01:29.410Z,-6.30
2022-12-16T02:04:01.840Z,-6.30
2022-12-16T02:06:30.696Z,-6.40
2022-12-16T02:09:03.781Z,-6.40
2022-12-16T02:12:05.688Z,-6.40
2022-12-16T02:14:48.193Z,-6.40
2022-12-16T02:17:21.987Z,-6.30
2022-12-16T02:20:38.293Z,-6.30
2022-12-16T02:23:43.890Z,-6.30
2022-12-16T02:26:44.526Z,-6.30
2022-12-16T02:29:37.383Z,-6.40
2022-12-16T02:32:16.961Z,-6.30
2022-12-16T02:34:55.150Z,-6.50
2022-12-16T02:37:36.402Z,-6.40
2022-12-16T02:40:08.102Z,-6.40
2022-12-16T02:42:42.903Z,-6.40
2022-12-16T02:45:16.054Z,-6.50
2022-12-16T02:47:46.505Z,-6.50
2022-12-16T02:50:21.600Z,-6.50
2022-12-16T02:52:51.480Z,-6.50
2022-12-16T02:55:20.398Z,-6.60
2022-12-16T02:58:08.388Z,-6.60
2022-12-16T03:00:45.985Z,-6.50
2022-12-16T03:03:22.465Z,-6.50
2022-12-16T03:05:52.688Z,-6.50
2022-12-16T03:08:25.902Z,-6.50
2022-12-16T03:10:58.413Z,-6.60
2022-12-16T03:13:30.028Z,-6.60
2022-12-16T03:16:01.347Z,-6.50
2022-12-16T03:18:32.176Z,-6.50
2022-12-16T03:21:03.864Z,-6.60
2022-12-16T03:23:37.777Z,-6.60
2022-12-16T03:26:11.358Z,-6.60
2022-12-16T03:28:47.217Z,-6.50
2022-12-16T03:31:24.017Z,-6.50
2022-12-16T03:33:59.258Z,-6.60
2022-12-16T03:36:28.375Z,-6.60
2022-12-16T03:38:58.153Z,-6.60
2022-12-16T03:41:29.222Z,-6.60
2022-12-16T03:43:57.770Z,-6.70
2022-12-16T03:46:26.232Z,-6.80
2022-12-16T03:48:56.115Z,-6.70
2022-12-16T03:51:24.429Z,-6.70
2022-12-16T03:53:52.631Z,-6.70
2022-12-16T03:56:20.909Z,-6.80
2022-12-16T03:58:49.156Z,-6.80
2022-12-16T04:01:17.368Z,-6.70
2022-12-16T04:07:36.584Z,-6.90
2022-12-16T04:10:05.641Z,-6.80
2022-12-16T04:12:51.378Z,-6.90
2022-12-16T04:15:37.662Z,-6.90
2022-12-16T04:18:23.617Z,-6.90
2022-12-16T04:21:12.973Z,-6.90
2022-12-16T04:24:11.851Z,-6.80
2022-12-16T04:26:53.963Z,-6.80
2022-12-16T04:29:22.304Z,-6.80
2022-12-16T04:31:51.177Z,-6.80
2022-12-16T04:34:27.722Z,-6.90
2022-12-16T04:37:14.916Z,-6.90
2022-12-16T04:40:02.250Z,-6.90
2022-12-16T04:42:48.123Z,-6.90
2022-12-16T04:45:34.049Z,-7.00
2022-12-16T04:48:21.018Z,-6.90
2022-12-16T04:51:06.439Z,-6.90
2022-12-16T04:53:51.954Z,-6.90
2022-12-16T04:56:39.177Z,-6.90
2022-12-16T04:59:24.720Z,-6.90
2022-12-16T05:02:10.440Z,-6.90
2022-12-16T05:04:56.125Z,-6.90
2022-12-16T05:07:41.595Z,-6.80
2022-12-16T05:10:35.969Z,-6.90
2022-12-16T05:13:31.516Z,-6.90
2022-12-16T05:16:17.454Z,-6.90
2022-12-16T05:19:02.886Z,-6.90
2022-12-16T05:22:02.895Z,-6.90
2022-12-16T05:24:52.729Z,-6.80
2022-12-16T05:27:38.805Z,-6.90
2022-12-16T05:30:33.354Z,-6.90
2022-12-16T05:33:19.540Z,-7.00
2022-12-16T05:36:04.926Z,-6.90
2022-12-16T05:38:50.858Z,-7.00
2022-12-16T05:41:36.331Z,-7.10
2022-12-16T05:44:22.168Z,-6.90
2022-12-16T05:47:09.254Z,-7.00
2022-12-16T05:49:54.758Z,-7.10
2022-12-16T05:52:40.695Z,-7.10
2022-12-16T05:55:33.598Z,-7.10
2022-12-16T05:58:19.466Z,-7.10
2022-12-16T06:01:04.880Z,-7.10
2022-12-16T06:03:52.063Z,-7.10
2022-12-16T06:06:37.875Z,-7.10
2022-12-16T06:09:23.764Z,-7.10
2022-12-16T06:12:09.859Z,-7.10
2022-12-16T06:14:55.365Z,-7.00
2022-12-16T06:17:41.345Z,-7.00
2022-12-16T06:20:29.389Z,-7.10
2022-12-16T06:23:14.888Z,-7.10
2022-12-16T06:26:00.369Z,-7.20
2022-12-16T06:28:46.330Z,-7.10
2022-12-16T06:31:32.158Z,-7.10
2022-12-16T06:34:17.998Z,-7.20
2022-12-16T06:37:19.360Z,-7.10
2022-12-16T06:40:04.922Z,-7.00
2022-12-16T06:42:50.639Z,-7.10
2022-12-16T06:45:36.296Z,-7.00
2022-12-16T06:48:22.013Z,-7.00
2022-12-16T06:51:07.483Z,-7.00
2022-12-16T06:53:50.899Z,-7.10
2022-12-16T06:56:36.558Z,-7.10
2022-12-16T06:59:22.168Z,-7.10
2022-12-16T07:02:08.307Z,-7.20
2022-12-16T07:04:54.232Z,-7.20
2022-12-16T07:07:40.060Z,-7.20
2022-12-16T07:10:28.097Z,-7.20
2022-12-16T07:13:16.543Z,-7.10
2022-12-16T07:16:02.561Z,-7.20
2022-12-16T07:18:48.143Z,-7.40
2022-12-16T07:21:33.663Z,-7.30
2022-12-16T07:24:19.524Z,-7.40
2022-12-16T07:27:11.810Z,-7.40
2022-12-16T07:29:57.582Z,-7.30
2022-12-16T07:32:42.984Z,-7.40
2022-12-16T07:35:28.589Z,-7.40
2022-12-16T07:38:14.119Z,-7.20
2022-12-16T07:40:59.666Z,-7.20
2022-12-16T07:43:46.603Z,-7.20
2022-12-16T07:46:32.089Z,-7.30
2022-12-16T07:49:17.639Z,-7.30
2022-12-16T07:52:03.108Z,-7.20
2022-12-16T07:54:48.430Z,-7.10
2022-12-16T07:57:33.965Z,-7.10
2022-12-16T08:00:21.635Z,-7.10
2022-12-16T08:03:12.074Z,-7.00
2022-12-16T08:05:57.803Z,-7.10
2022-12-16T08:08:43.781Z,-7.10
2022-12-16T08:11:29.180Z,-6.90
2022-12-16T08:14:14.918Z,-7.00
2022-12-16T08:17:01.715Z,-7.00
2022-12-16T08:19:47.281Z,-6.90
2022-12-16T08:22:32.690Z,-6.80
2022-12-16T08:25:18.291Z,-6.80
2022-12-16T08:28:03.809Z,-6.70
2022-12-16T08:30:49.471Z,-6.70
2022-12-16T08:33:37.484Z,-6.60
2022-12-16T08:36:24.279Z,-6.60
2022-12-16T08:39:09.721Z,-6.50
2022-12-16T08:42:03.535Z,-6.50
2022-12-16T08:44:49.235Z,-6.40
2022-12-16T08:47:34.764Z,-6.30
2022-12-16T08:50:21.796Z,-6.20
2022-12-16T08:53:07.204Z,-6.20
2022-12-16T08:55:55.690Z,-6.10
2022-12-16T08:58:41.702Z,-6.10
2022-12-16T09:01:27.270Z,-5.90
2022-12-16T09:04:13.191Z,-5.90
2022-12-16T09:07:00.384Z,-5.90
2022-12-16T09:09:46.214Z,-5.80
2022-12-16T09:12:31.678Z,-5.70
2022-12-16T09:15:17.323Z,-5.60
2022-12-16T09:18:03.045Z,-5.60
2022-12-16T09:20:48.524Z,-5.60
2022-12-16T09:23:35.859Z,-5.50
2022-12-16T09:26:22.118Z,-5.40
2022-12-16T09:29:07.666Z,-5.30
2022-12-16T09:31:59.267Z,-5.10
2022-12-16T09:34:45.111Z,-5.10
2022-12-16T09:37:30.533Z,-4.90
2022-12-16T09:40:17.417Z,-4.90
2022-12-16T09:43:09.907Z,-4.90
2022-12-16T09:46:05.256Z,-4.70
2022-12-16T09:49:06.463Z,-4.60
2022-12-16T09:52:03.519Z,-4.60
2022-12-16T09:54:53.439Z,-4.50
2022-12-16T09:57:51.300Z,-4.50
2022-12-16T10:00:41.309Z,-4.30
2022-12-16T10:03:38.631Z,-4.30
2022-12-16T10:06:33.876Z,-4.20
2022-12-16T10:09:26.793Z,-4.10
2022-12-16T10:12:20.287Z,-4.00
2022-12-16T10:15:13.926Z,-3.90
2022-12-16T10:18:04.616Z,-3.80
2022-12-16T10:20:58.217Z,-3.70
2022-12-16T10:23:51.696Z,-3.60
2022-12-16T10:26:44.810Z,-3.50
2022-12-16T10:29:37.355Z,-3.50
2022-12-16T10:32:36.342Z,-3.40
2022-12-16T10:35:33.744Z,-3.40
2022-12-16T10:38:19.636Z,-3.30
2022-12-16T10:41:05.950Z,-3.20
2022-12-16T10:43:57.011Z,-3.10
2022-12-16T10:46:47.055Z,-3.00
2022-12-16T10:49:35.137Z,-3.00
2022-12-16T10:52:21.566Z,-2.90
2022-12-16T10:55:19.642Z,-2.80
2022-12-16T10:58:16.722Z,-2.70
2022-12-16T11:01:07.302Z,-2.70
2022-12-16T11:03:55.339Z,-2.60
2022-12-16T11:06:46.149Z,-2.50
2022-12-16T11:09:40.750Z,-2.50
2022-12-16T11:12:51.502Z,-2.40
2022-12-16T11:15:43.769Z,-2.40
2022-12-16T11:18:32.556Z,-2.30
2022-12-16T11:21:33.326Z,-2.20
2022-12-16T11:24:32.780Z,-2.20
2022-12-16T11:27:20.298Z,-2.20
2022-12-16T11:30:11.806Z,-2.00
2022-12-16T11:33:00.503Z,-2.00
2022-12-16T11:35:48.899Z,-1.90
2022-12-16T11:38:42.341Z,-1.90
2022-12-16T11:41:43.392Z,-1.80
2022-12-16T11:44:38.767Z,-1.80
2022-12-16T11:47:28.613Z,-1.70
2022-12-16T11:50:16.846Z,-1.60
2022-12-16T11:53:11.438Z,-1.60
2022-12-16T11:56:07.673Z,-1.50
2022-12-16T11:59:03.794Z,-1.40
2022-12-16T12:01:54.168Z,-1.40
2022-12-16T12:04:41.634Z,-1.30
2022-12-16T12:07:45.241Z,-1.30
2022-12-16T12:11:01.511Z,-1.30
2022-12-16T12:14:12.035Z,-1.20
2022-12-16T12:17:16.267Z,-1.10
2022-12-16T12:20:10.687Z,-1.00
2022-12-16T12:22:58.192Z,-1.00
2022-12-16T12:25:50.713Z,-1.00
2022-12-16T12:28:50.974Z,-1.00
2022-12-16T12:31:47.991Z,-0.90
2022-12-16T12:34:43.118Z,-0.90
2022-12-16T12:37:36.531Z,-0.80
2022-12-16T12:40:40.798Z,-0.80
2022-12-16T12:43:38.512Z,-0.80
2022-12-16T12:46:34.120Z,-0.70
2022-12-16T12:49:25.713Z,-0.60
2022-12-16T12:52:20.138Z,-0.60
2022-12-16T12:55:11.835Z,-0.60
2022-12-16T12:58:00.436Z,-0.70
2022-12-16T13:00:48.985Z,-0.70
2022-12-16T13:03:46.677Z,-0.70
2022-12-16T13:06:34.962Z,-0.60
2022-12-16T13:09:21.456Z,-0.60
2022-12-16T13:12:46.328Z,-0.60
2022-12-16T13:15:51.491Z,-0.70
2022-12-16T13:18:43.880Z,-0.70
2022-12-16T13:22:02.986Z,-0.80
2022-12-16T13:25:00.887Z,-0.70
2022-12-16T13:27:47.924Z,-0.80
2022-12-16T13:30:37.395Z,-0.80
2022-12-16T13:33:26.634Z,-0.80
2022-12-16T13:36:14.294Z,-0.70
2022-12-16T13:39:05.234Z,-0.80
2022-12-16T13:42:18.777Z,-0.70
2022-12-16T13:45:16.350Z,-0.70
2022-12-16T13:48:20.270Z,-0.70
2022-12-16T13:51:09.143Z,-0.70
2022-12-16T13:54:02.706Z,-0.60
2022-12-16T13:56:53.402Z,-0.60
2022-12-16T13:59:44.128Z,-0.70
2022-12-16T14:02:42.805Z,-0.70
2022-12-16T14:05:37.720Z,-0.80
2022-12-16T14:08:29.416Z,-0.80
2022-12-16T14:11:19.234Z,-0.80
2022-12-16T14:14:11.678Z,-0.80
2022-12-16T14:17:09.438Z,-0.70
2022-12-16T14:20:13.465Z,-0.60
2022-12-16T14:23:32.569Z,-0.50
2022-12-16T14:26:19.112Z,-0.50
2022-12-16T14:29:07.158Z,-0.70
2022-12-16T14:31:56.013Z,-0.70
2022-12-16T14:34:44.680Z,-0.60
2022-12-16T14:37:34.498Z,-0.70
2022-12-16T14:40:20.268Z,-0.80
2022-12-16T14:43:09.891Z,-0.90
2022-12-16T14:46:06.655Z,-0.90
2022-12-16T14:48:54.750Z,-0.90
2022-12-16T14:51:47.409Z,-1.00
2022-12-16T14:54:38.910Z,-1.10
2022-12-16T14:57:28.830Z,-1.10
2022-12-16T15:00:36.829Z,-1.00
2022-12-16T15:03:30.056Z,-1.10
2022-12-16T15:06:16.957Z,-1.10
2022-12-16T15:09:08.031Z,-1.20
2022-12-16T15:12:11.092Z,-1.30
2022-12-16T15:15:01.632Z,-1.40
2022-12-16T15:17:52.583Z,-1.60
2022-12-16T15:20:44.674Z,-1.60
2022-12-16T15:23:37.846Z,-1.70
2022-12-16T15:26:25.669Z,-1.80
2022-12-16T15:29:12.082Z,-1.80
2022-12-16T15:32:03.302Z,-2.00
2022-12-16T15:34:51.664Z,-1.90
2022-12-16T15:37:40.491Z,-2.00
2022-12-16T15:40:41.680Z,-2.10
2022-12-16T15:43:45.989Z,-2.10
2022-12-16T15:46:37.080Z,-2.20
2022-12-16T15:49:32.139Z,-2.20
2022-12-16T15:52:18.027Z,-2.30
2022-12-16T15:55:11.454Z,-2.30
2022-12-16T15:57:58.169Z,-2.20
2022-12-16T16:00:47.273Z,-2.30
2022-12-16T16:03:39.740Z,-2.20
2022-12-16T16:06:35.034Z,-2.20
2022-12-16T16:09:21.220Z,-2.00
2022-12-16T16:12:06.817Z,-2.10
2022-12-16T16:14:52.316Z,-2.30
2022-12-16T16:17:41.869Z,-2.50
2022-12-16T16:20:32.758Z,-2.50
2022-12-16T16:23:18.782Z,-2.60
2022-12-16T16:26:06.591Z,-2.70
2022-12-16T16:28:53.059Z,-2.60
2022-12-16T16:31:38.881Z,-2.60
2022-12-16T16:34:26.489Z,-2.70
2022-12-16T16:37:15.599Z,-2.80
2022-12-16T16:40:02.039Z,-2.80
2022-12-16T16:42:48.390Z,-2.90
2022-12-16T16:45:34.190Z,-3.00
2022-12-16T16:48:29.088Z,-2.90
2022-12-16T16:51:17.323Z,-3.00
2022-12-16T16:54:03.780Z,-3.00
2022-12-16T16:56:52.866Z,-3.10
2022-12-16T16:59:40.508Z,-3.10
2022-12-16T17:02:40.815Z,-3.10
2022-12-16T17:05:30.198Z,-3.10
2022-12-16T17:08:17.449Z,-3.10
2022-12-16T17:11:03.326Z,-3.20
2022-12-16T17:13:48.940Z,-3.30
2022-12-16T17:16:34.754Z,-3.30
2022-12-16T17:19:21.630Z,-3.30
2022-12-16T17:22:07.590Z,-3.30
2022-12-16T17:24:55.013Z,-3.20
2022-12-16T17:27:42.478Z,-3.30
2022-12-16T17:30:34.937Z,-3.30
2022-12-16T17:33:21.279Z,-3.30
2022-12-16T17:36:08.551Z,-3.40
2022-12-16T17:38:57.317Z,-3.30
2022-12-16T17:41:55.051Z,-3.50
2022-12-16T17:44:40.833Z,-3.50
2022-12-16T17:47:26.466Z,-3.60
2022-12-16T17:50:12.062Z,-3.60
2022-12-16T17:52:58.200Z,-3.70
2022-12-16T17:55:44.191Z,-3.70
2022-12-16T17:58:30.740Z,-3.80
2022-12-16T18:01:19.598Z,-3.80
2022-12-16T18:04:05.373Z,-3.80
2022-12-16T18:06:51.357Z,-3.90
2022-12-16T18:09:36.697Z,-3.90
2022-12-16T18:12:23.043Z,-4.00
2022-12-16T18:15:10.244Z,-4.10
2022-12-16T18:17:55.589Z,-4.10
2022-12-16T18:20:37.666Z,-4.10
2022-12-16T18:23:23.511Z,-4.10
2022-12-16T18:26:16.416Z,-4.10
2022-12-16T18:29:01.918Z,-4.10
2022-12-16T18:31:49.446Z,-4.10
2022-12-16T18:34:35.438Z,-4.20
2022-12-16T18:37:21.714Z,-4.10
2022-12-16T18:40:07.720Z,-4.20
2022-12-16T18:42:53.834Z,-4.30
2022-12-16T18:45:39.338Z,-4.30
2022-12-16T18:48:26.257Z,-4.30
2022-12-16T18:51:13.249Z,-4.30
2022-12-16T18:53:59.311Z,-4.30
2022-12-16T18:56:45.054Z,-4.40
2022-12-16T18:59:32.077Z,-4.40
2022-12-16T19:02:18.137Z,-4.50
2022-12-16T19:05:05.261Z,-4.60
2022-12-16T19:07:50.998Z,-4.60
2022-12-16T19:10:36.904Z,-4.60
2022-12-16T19:13:22.410Z,-4.60
2022-12-16T19:16:14.311Z,-4.60
2022-12-16T19:19:00.050Z,-4.60
2022-12-16T19:21:52.125Z,-4.60
2022-12-16T19:24:42.418Z,-4.70
2022-12-16T19:27:28.191Z,-4.70
2022-12-16T19:30:14.542Z,-4.70
2022-12-16T19:32:59.951Z,-4.70
2022-12-16T19:35:45.648Z,-4.70
2022-12-16T19:38:33.392Z,-4.70
2022-12-16T19:41:19.903Z,-4.80
2022-12-16T19:44:20.444Z,-4.70
2022-12-16T19:47:06.511Z,-4.70
2022-12-16T19:49:52.142Z,-4.70
2022-12-16T19:52:40.509Z,-4.70
2022-12-16T19:55:28.213Z,-4.80
2022-12-16T19:58:14.114Z,-4.90
2022-12-16T20:01:14.612Z,-4.90
2022-12-16T20:04:05.673Z,-5.00
2022-12-16T20:06:51.406Z,-5.00
2022-12-16T20:09:37.012Z,-5.00
2022-12-16T20:12:27.528Z,-5.10
2022-12-16T20:15:13.629Z,-5.10
2022-12-16T20:18:00.102Z,-5.10
2022-12-16T20:21:10.255Z,-5.10
2022-12-16T20:23:56.733Z,-5.10
2022-12-16T20:26:42.566Z,-5.10
2022-12-16T20:29:29.682Z,-5.00
2022-12-16T20:32:15.276Z,-4.90
2022-12-16T20:35:01.274Z,-4.80
2022-12-16T20:37:46.866Z,-4.70
2022-12-16T20:40:32.953Z,-4.50
2022-12-16T20:43:18.563Z,-4.40
2022-12-16T20:46:05.774Z,-4.30
2022-12-16T20:48:51.263Z,-4.10
2022-12-16T20:51:37.225Z,-4.10
2022-12-16T20:54:23.057Z,-3.90
2022-12-16T21:00:17.447Z,-3.80
2022-12-16T21:03:04.711Z,-3.80
2022-12-16T21:05:50.171Z,-3.80
2022-12-16T21:08:37.248Z,-3.70
2022-12-16T21:11:23.112Z,-3.80
2022-12-16T21:14:09.083Z,-3.80
2022-12-16T21:16:55.964Z,-3.90
2022-12-16T21:19:43.428Z,-3.90
2022-12-16T21:22:29.236Z,-4.00
2022-12-16T21:25:16.739Z,-4.10
2022-12-16T21:28:05.294Z,-4.00
2022-12-16T21:30:51.238Z,-3.90
2022-12-16T21:33:39.532Z,-3.80
2022-12-16T21:36:27.122Z,-3.80
2022-12-16T21:39:12.569Z,-3.80
2022-12-16T21:41:58.849Z,-3.80
2022-12-16T21:44:44.678Z,-3.80
2022-12-16T21:47:30.311Z,-3.70
2022-12-16T21:50:15.870Z,-3.80
2022-12-16T21:53:05.991Z,-3.70
2022-12-16T21:55:51.686Z,-3.70
2022-12-16T21:58:38.030Z,-3.60
2022-12-16T22:01:24.428Z,-3.60
2022-12-16T22:04:10.022Z,-3.60
2022-12-16T22:06:55.554Z,-3.70
2022-12-16T22:09:43.322Z,-3.60
2022-12-16T22:12:28.818Z,-3.70
2022-12-16T22:15:14.343Z,-3.60
2022-12-16T22:17:59.807Z,-3.60
2022-12-16T22:20:45.538Z,-3.60
2022-12-16T22:23:31.332Z,-3.60
2022-12-16T22:26:19.350Z,-3.60
2022-12-16T22:29:05.450Z,-3.60
2022-12-16T22:31:50.863Z,-3.60
2022-12-16T22:34:37.678Z,-3.60
2022-12-16T22:36:21.601Z,-3.80
2022-12-16T22:37:23.587Z,-3.60
2022-12-16T22:40:08.901Z,-3.60
2022-12-16T22:42:56.658Z,-3.70
2022-12-16T22:45:42.234Z,-3.70
2022-12-16T22:48:30.476Z,-3.60
2022-12-16T22:51:16.236Z,-3.60
2022-12-16T22:54:01.696Z,-3.50
2022-12-16T22:56:47.315Z,-3.50
2022-12-16T22:59:34.379Z,-3.40
2022-12-16T23:02:19.651Z,-3.50
2022-12-16T23:05:05.353Z,-3.50
2022-12-16T23:07:50.787Z,-3.40
2022-12-16T23:10:37.259Z,-3.40
2022-12-16T23:13:23.553Z,-3.40
2022-12-16T23:16:10.788Z,-3.30
2022-12-16T23:18:56.542Z,-3.40
2022-12-16T23:21:42.402Z,-3.30
2022-12-16T23:24:29.329Z,-3.30
2022-12-16T23:27:15.398Z,-3.30
2022-12-16T23:30:00.926Z,-3.30
2022-12-16T23:32:50.325Z,-3.20
2022-12-16T23:35:36.016Z,-3.30
2022-12-16T23:38:24.187Z,-3.30
2022-12-16T23:41:14.153Z,-3.30
2022-12-16T23:43:59.418Z,-3.30
2022-12-16T23:46:45.533Z,-3.20
2022-12-16T23:49:32.391Z,-3.10
2022-12-16T23:52:17.796Z,-3.10
2022-12-16T23:55:03.690Z,-3.10
2022-12-16T23:57:49.614Z,-3.10
